sensor_id;sensor_type;location;lat;lon;timestamp;pressure;altitude;pressure_sealevel;temperature;humidity
43394;BME280;62479;62.642;17.954;2022-11-20T00:01:09;102654.31;;;-3.32;79.72
43394;BME280;62479;62.642;17.954;2022-11-20T00:03:38;102651.66;;;-3.20;79.41
43394;BME280;62479;62.642;17.954;2022-11-20T00:06:09;102644.72;;;-3.10;79.01
43394;BME280;62479;62.642;17.954;2022-11-20T00:08:39;102641.69;;;-3.11;79.08
43394;BME280;62479;62.642;17.954;2022-11-20T00:11:11;102643.70;;;-3.14;79.21
43394;BME280;62479;62.642;17.954;2022-11-20T00:13:40;102636.03;;;-3.13;79.17
43394;BME280;62479;62.642;17.954;2022-11-20T00:16:11;102637.99;;;-3.15;79.19
43394;BME280;62479;62.642;17.954;2022-11-20T00:18:40;102635.81;;;-2.98;78.92
43394;BME280;62479;62.642;17.954;2022-11-20T00:21:11;102632.00;;;-3.03;78.20
43394;BME280;62479;62.642;17.954;2022-11-20T00:23:40;102630.16;;;-3.04;78.36
43394;BME280;62479;62.642;17.954;2022-11-20T00:26:12;102630.31;;;-3.17;78.31
43394;BME280;62479;62.642;17.954;2022-11-20T00:28:41;102627.98;;;-3.11;77.82
43394;BME280;62479;62.642;17.954;2022-11-20T00:31:12;102624.21;;;-3.08;77.72
43394;BME280;62479;62.642;17.954;2022-11-20T00:33:42;102620.94;;;-3.13;77.14
43394;BME280;62479;62.642;17.954;2022-11-20T00:36:12;102615.90;;;-3.02;77.50
43394;BME280;62479;62.642;17.954;2022-11-20T00:38:41;102612.51;;;-3.08;77.44
43394;BME280;62479;62.642;17.954;2022-11-20T00:41:12;102607.80;;;-3.07;77.42
43394;BME280;62479;62.642;17.954;2022-11-20T00:43:41;102607.19;;;-3.20;77.45
43394;BME280;62479;62.642;17.954;2022-11-20T00:46:14;102610.06;;;-3.04;77.36
43394;BME280;62479;62.642;17.954;2022-11-20T00:48:43;102608.77;;;-3.08;77.26
43394;BME280;62479;62.642;17.954;2022-11-20T00:51:13;102613.08;;;-3.24;77.55
43394;BME280;62479;62.642;17.954;2022-11-20T00:53:43;102606.33;;;-3.37;77.23
43394;BME280;62479;62.642;17.954;2022-11-20T00:56:15;102603.19;;;-3.37;77.20
43394;BME280;62479;62.642;17.954;2022-11-20T00:58:46;102598.08;;;-3.23;77.50
43394;BME280;62479;62.642;17.954;2022-11-20T01:01:17;102599.95;;;-3.39;77.46
43394;BME280;62479;62.642;17.954;2022-11-20T01:03:52;102601.39;;;-3.51;77.27
43394;BME280;62479;62.642;17.954;2022-11-20T01:06:22;102603.12;;;-3.22;77.71
43394;BME280;62479;62.642;17.954;2022-11-20T01:08:54;102601.34;;;-3.35;76.97
43394;BME280;62479;62.642;17.954;2022-11-20T01:11:26;102601.14;;;-3.22;76.37
43394;BME280;62479;62.642;17.954;2022-11-20T01:13:56;102593.18;;;-3.32;76.21
43394;BME280;62479;62.642;17.954;2022-11-20T01:16:30;102593.87;;;-3.31;76.78
43394;BME280;62479;62.642;17.954;2022-11-20T01:19:00;102584.29;;;-3.12;77.13
43394;BME280;62479;62.642;17.954;2022-11-20T01:21:31;102588.30;;;-3.13;76.75
43394;BME280;62479;62.642;17.954;2022-11-20T01:24:01;102580.35;;;-3.21;76.78
43394;BME280;62479;62.642;17.954;2022-11-20T01:26:32;102576.50;;;-3.06;76.69
43394;BME280;62479;62.642;17.954;2022-11-20T01:29:03;102569.69;;;-3.09;76.28
43394;BME280;62479;62.642;17.954;2022-11-20T01:31:35;102568.79;;;-3.08;76.30
43394;BME280;62479;62.642;17.954;2022-11-20T01:34:05;102570.48;;;-3.01;76.61
43394;BME280;62479;62.642;17.954;2022-11-20T01:36:35;102568.99;;;-3.09;76.61
43394;BME280;62479;62.642;17.954;2022-11-20T01:39:10;102564.90;;;-3.07;76.13
43394;BME280;62479;62.642;17.954;2022-11-20T01:41:40;102563.24;;;-3.04;76.19
43394;BME280;62479;62.642;17.954;2022-11-20T01:44:11;102568.89;;;-3.11;76.60
43394;BME280;62479;62.642;17.954;2022-11-20T01:46:47;102559.91;;;-3.12;76.40
43394;BME280;62479;62.642;17.954;2022-11-20T01:49:24;102554.63;;;-3.18;76.65
43394;BME280;62479;62.642;17.954;2022-11-20T01:51:57;102549.85;;;-3.14;76.22
43394;BME280;62479;62.642;17.954;2022-11-20T01:54:33;102550.73;;;-3.10;75.62
43394;BME280;62479;62.642;17.954;2022-11-20T01:57:06;102548.76;;;-3.07;75.96
43394;BME280;62479;62.642;17.954;2022-11-20T01:59:40;102538.88;;;-3.08;75.35
43394;BME280;62479;62.642;17.954;2022-11-20T02:02:12;102539.07;;;-2.98;75.81
43394;BME280;62479;62.642;17.954;2022-11-20T02:04:43;102541.78;;;-2.85;75.95
43394;BME280;62479;62.642;17.954;2022-11-20T02:07:13;102542.39;;;-3.01;75.34
43394;BME280;62479;62.642;17.954;2022-11-20T02:09:42;102540.86;;;-3.07;75.88
43394;BME280;62479;62.642;17.954;2022-11-20T02:12:12;102541.47;;;-3.08;76.35
43394;BME280;62479;62.642;17.954;2022-11-20T02:14:40;102536.86;;;-3.06;76.02
43394;BME280;62479;62.642;17.954;2022-11-20T02:17:09;102531.97;;;-3.23;75.87
43394;BME280;62479;62.642;17.954;2022-11-20T02:19:38;102529.42;;;-3.22;76.06
43394;BME280;62479;62.642;17.954;2022-11-20T02:22:17;102523.10;;;-3.23;76.29
43394;BME280;62479;62.642;17.954;2022-11-20T02:24:51;102515.79;;;-3.28;76.81
43394;BME280;62479;62.642;17.954;2022-11-20T02:27:20;102516.74;;;-3.27;76.39
43394;BME280;62479;62.642;17.954;2022-11-20T02:29:51;102509.67;;;-3.30;76.69
43394;BME280;62479;62.642;17.954;2022-11-20T02:32:25;102506.36;;;-3.24;76.40
43394;BME280;62479;62.642;17.954;2022-11-20T02:34:54;102503.03;;;-3.21;76.20
43394;BME280;62479;62.642;17.954;2022-11-20T02:37:27;102501.73;;;-3.14;75.87
43394;BME280;62479;62.642;17.954;2022-11-20T02:40:00;102499.22;;;-3.23;76.16
43394;BME280;62479;62.642;17.954;2022-11-20T02:42:29;102493.31;;;-3.26;76.69
43394;BME280;62479;62.642;17.954;2022-11-20T02:44:57;102492.91;;;-3.27;76.52
43394;BME280;62479;62.642;17.954;2022-11-20T02:47:27;102489.01;;;-3.33;77.00
43394;BME280;62479;62.642;17.954;2022-11-20T02:49:56;102486.97;;;-3.28;76.56
43394;BME280;62479;62.642;17.954;2022-11-20T02:52:26;102483.80;;;-3.35;76.71
43394;BME280;62479;62.642;17.954;2022-11-20T02:54:56;102484.90;;;-3.46;76.77
43394;BME280;62479;62.642;17.954;2022-11-20T02:57:25;102483.22;;;-3.43;76.41
43394;BME280;62479;62.642;17.954;2022-11-20T03:00:00;102481.65;;;-3.54;76.18
43394;BME280;62479;62.642;17.954;2022-11-20T03:02:30;102480.20;;;-3.41;76.01
43394;BME280;62479;62.642;17.954;2022-11-20T03:04:59;102484.04;;;-3.60;76.69
43394;BME280;62479;62.642;17.954;2022-11-20T03:07:29;102482.62;;;-3.65;76.74
43394;BME280;62479;62.642;17.954;2022-11-20T03:09:59;102479.02;;;-3.63;77.01
43394;BME280;62479;62.642;17.954;2022-11-20T03:12:27;102474.65;;;-3.64;77.28
43394;BME280;62479;62.642;17.954;2022-11-20T03:14:56;102482.17;;;-3.60;77.34
43394;BME280;62479;62.642;17.954;2022-11-20T03:17:25;102480.97;;;-3.56;76.99
43394;BME280;62479;62.642;17.954;2022-11-20T03:19:54;102481.40;;;-3.63;77.29
43394;BME280;62479;62.642;17.954;2022-11-20T03:22:24;102480.33;;;-3.65;77.43
43394;BME280;62479;62.642;17.954;2022-11-20T03:24:53;102482.21;;;-3.56;77.32
43394;BME280;62479;62.642;17.954;2022-11-20T03:27:22;102481.68;;;-3.62;76.87
43394;BME280;62479;62.642;17.954;2022-11-20T03:29:56;102477.77;;;-3.52;76.92
43394;BME280;62479;62.642;17.954;2022-11-20T03:32:26;102472.65;;;-3.58;77.52
43394;BME280;62479;62.642;17.954;2022-11-20T03:34:55;102468.49;;;-3.63;77.14
43394;BME280;62479;62.642;17.954;2022-11-20T03:37:24;102468.45;;;-3.59;77.00
43394;BME280;62479;62.642;17.954;2022-11-20T03:39:53;102472.59;;;-3.72;77.69
43394;BME280;62479;62.642;17.954;2022-11-20T03:42:22;102472.23;;;-3.52;76.51
43394;BME280;62479;62.642;17.954;2022-11-20T03:44:52;102467.05;;;-3.62;77.13
43394;BME280;62479;62.642;17.954;2022-11-20T03:47:21;102471.36;;;-3.68;77.07
43394;BME280;62479;62.642;17.954;2022-11-20T03:49:50;102468.49;;;-3.60;76.89
43394;BME280;62479;62.642;17.954;2022-11-20T03:52:19;102463.10;;;-3.66;77.25
43394;BME280;62479;62.642;17.954;2022-11-20T03:54:48;102459.80;;;-3.65;77.31
43394;BME280;62479;62.642;17.954;2022-11-20T03:57:18;102447.46;;;-3.69;77.38
43394;BME280;62479;62.642;17.954;2022-11-20T03:59:47;102447.25;;;-3.69;77.64
43394;BME280;62479;62.642;17.954;2022-11-20T04:02:15;102442.84;;;-3.72;78.11
43394;BME280;62479;62.642;17.954;2022-11-20T04:04:44;102442.92;;;-3.64;77.67
43394;BME280;62479;62.642;17.954;2022-11-20T04:07:14;102438.87;;;-3.69;78.31
43394;BME280;62479;62.642;17.954;2022-11-20T04:09:43;102436.70;;;-3.65;78.02
43394;BME280;62479;62.642;17.954;2022-11-20T04:12:13;102431.95;;;-3.81;78.30
43394;BME280;62479;62.642;17.954;2022-11-20T04:14:41;102433.27;;;-3.91;78.14
43394;BME280;62479;62.642;17.954;2022-11-20T04:17:10;102432.31;;;-3.72;77.83
43394;BME280;62479;62.642;17.954;2022-11-20T04:19:40;102433.92;;;-3.74;77.79
43394;BME280;62479;62.642;17.954;2022-11-20T04:22:09;102428.59;;;-3.71;77.62
43394;BME280;62479;62.642;17.954;2022-11-20T04:24:39;102424.25;;;-3.83;77.89
43394;BME280;62479;62.642;17.954;2022-11-20T04:27:07;102429.91;;;-3.82;78.85
43394;BME280;62479;62.642;17.954;2022-11-20T04:29:36;102427.60;;;-3.82;78.13
43394;BME280;62479;62.642;17.954;2022-11-20T04:32:05;102428.99;;;-3.72;78.23
43394;BME280;62479;62.642;17.954;2022-11-20T04:34:35;102417.48;;;-3.86;78.11
43394;BME280;62479;62.642;17.954;2022-11-20T04:37:05;102414.03;;;-3.80;78.09
43394;BME280;62479;62.642;17.954;2022-11-20T04:39:34;102422.20;;;-3.89;78.36
43394;BME280;62479;62.642;17.954;2022-11-20T04:42:02;102417.13;;;-3.61;77.90
43394;BME280;62479;62.642;17.954;2022-11-20T04:44:31;102417.71;;;-3.65;77.85
43394;BME280;62479;62.642;17.954;2022-11-20T04:47:00;102420.15;;;-3.67;77.75
43394;BME280;62479;62.642;17.954;2022-11-20T04:49:31;102413.08;;;-3.67;77.11
43394;BME280;62479;62.642;17.954;2022-11-20T04:52:01;102414.95;;;-3.81;77.72
43394;BME280;62479;62.642;17.954;2022-11-20T04:54:31;102412.04;;;-4.02;78.04
43394;BME280;62479;62.642;17.954;2022-11-20T04:56:59;102416.40;;;-3.85;77.17
43394;BME280;62479;62.642;17.954;2022-11-20T04:59:29;102409.77;;;-3.91;77.68
43394;BME280;62479;62.642;17.954;2022-11-20T05:03:25;102404.55;;;-4.00;77.57
43394;BME280;62479;62.642;17.954;2022-11-20T05:05:54;102402.86;;;-4.02;77.20
43394;BME280;62479;62.642;17.954;2022-11-20T05:08:24;102401.99;;;-4.04;77.09
43394;BME280;62479;62.642;17.954;2022-11-20T05:10:53;102402.69;;;-3.95;76.75
43394;BME280;62479;62.642;17.954;2022-11-20T05:13:22;102404.90;;;-3.91;77.38
43394;BME280;62479;62.642;17.954;2022-11-20T05:15:51;102398.59;;;-3.96;77.39
43394;BME280;62479;62.642;17.954;2022-11-20T05:18:20;102399.52;;;-4.03;77.06
43394;BME280;62479;62.642;17.954;2022-11-20T05:20:54;102395.92;;;-4.04;77.84
43394;BME280;62479;62.642;17.954;2022-11-20T05:23:22;102396.17;;;-4.12;78.26
43394;BME280;62479;62.642;17.954;2022-11-20T05:25:52;102391.86;;;-4.19;77.43
43394;BME280;62479;62.642;17.954;2022-11-20T05:28:21;102382.73;;;-4.09;77.50
43394;BME280;62479;62.642;17.954;2022-11-20T05:30:51;102387.04;;;-4.04;77.29
43394;BME280;62479;62.642;17.954;2022-11-20T05:33:20;102387.32;;;-4.01;77.04
43394;BME280;62479;62.642;17.954;2022-11-20T05:35:48;102380.13;;;-4.13;77.45
43394;BME280;62479;62.642;17.954;2022-11-20T05:38:17;102387.45;;;-3.99;77.20
43394;BME280;62479;62.642;17.954;2022-11-20T05:40:47;102387.41;;;-3.95;77.36
43394;BME280;62479;62.642;17.954;2022-11-20T05:43:16;102381.96;;;-4.02;77.47
43394;BME280;62479;62.642;17.954;2022-11-20T05:45:52;102372.61;;;-3.98;76.93
43394;BME280;62479;62.642;17.954;2022-11-20T05:48:21;102368.09;;;-3.98;77.34
43394;BME280;62479;62.642;17.954;2022-11-20T05:50:51;102370.78;;;-4.11;77.75
43394;BME280;62479;62.642;17.954;2022-11-20T05:53:20;102373.21;;;-3.89;77.89
43394;BME280;62479;62.642;17.954;2022-11-20T05:55:56;102373.07;;;-4.05;77.74
43394;BME280;62479;62.642;17.954;2022-11-20T05:58:26;102376.72;;;-4.03;77.48
43394;BME280;62479;62.642;17.954;2022-11-20T06:01:04;102377.96;;;-4.04;77.32
43394;BME280;62479;62.642;17.954;2022-11-20T06:03:35;102377.14;;;-3.98;76.86
43394;BME280;62479;62.642;17.954;2022-11-20T06:06:04;102369.27;;;-4.07;77.01
43394;BME280;62479;62.642;17.954;2022-11-20T06:08:34;102360.31;;;-4.11;76.96
43394;BME280;62479;62.642;17.954;2022-11-20T06:11:04;102358.52;;;-4.08;77.29
43394;BME280;62479;62.642;17.954;2022-11-20T06:13:35;102354.90;;;-4.04;77.24
43394;BME280;62479;62.642;17.954;2022-11-20T06:16:03;102352.92;;;-4.06;76.96
43394;BME280;62479;62.642;17.954;2022-11-20T06:18:32;102357.12;;;-3.96;77.04
43394;BME280;62479;62.642;17.954;2022-11-20T06:21:04;102354.01;;;-3.94;77.23
43394;BME280;62479;62.642;17.954;2022-11-20T06:23:39;102350.97;;;-3.97;77.10
43394;BME280;62479;62.642;17.954;2022-11-20T06:26:11;102357.73;;;-3.98;76.81
43394;BME280;62479;62.642;17.954;2022-11-20T06:28:40;102351.72;;;-4.01;76.82
43394;BME280;62479;62.642;17.954;2022-11-20T06:31:11;102353.98;;;-3.95;77.02
43394;BME280;62479;62.642;17.954;2022-11-20T06:33:39;102348.49;;;-3.91;77.02
43394;BME280;62479;62.642;17.954;2022-11-20T06:36:10;102334.28;;;-3.89;76.87
43394;BME280;62479;62.642;17.954;2022-11-20T06:38:41;102331.85;;;-3.94;77.31
43394;BME280;62479;62.642;17.954;2022-11-20T06:41:14;102337.52;;;-3.97;77.25
43394;BME280;62479;62.642;17.954;2022-11-20T06:43:43;102335.23;;;-3.91;77.54
43394;BME280;62479;62.642;17.954;2022-11-20T06:46:14;102338.98;;;-3.89;77.49
43394;BME280;62479;62.642;17.954;2022-11-20T06:48:43;102342.29;;;-4.05;77.52
43394;BME280;62479;62.642;17.954;2022-11-20T06:51:12;102338.90;;;-3.90;77.52
43394;BME280;62479;62.642;17.954;2022-11-20T06:53:41;102337.55;;;-4.06;77.41
43394;BME280;62479;62.642;17.954;2022-11-20T06:56:10;102336.12;;;-4.06;77.55
43394;BME280;62479;62.642;17.954;2022-11-20T06:58:47;102340.79;;;-3.99;77.83
43394;BME280;62479;62.642;17.954;2022-11-20T07:01:16;102334.18;;;-4.16;77.88
43394;BME280;62479;62.642;17.954;2022-11-20T07:03:48;102339.52;;;-4.11;77.82
43394;BME280;62479;62.642;17.954;2022-11-20T07:06:16;102338.69;;;-3.99;77.80
43394;BME280;62479;62.642;17.954;2022-11-20T07:08:45;102335.48;;;-4.07;78.14
43394;BME280;62479;62.642;17.954;2022-11-20T07:11:14;102330.85;;;-3.99;78.01
43394;BME280;62479;62.642;17.954;2022-11-20T07:13:43;102329.78;;;-3.96;77.31
43394;BME280;62479;62.642;17.954;2022-11-20T07:16:14;102328.77;;;-3.91;76.79
43394;BME280;62479;62.642;17.954;2022-11-20T07:18:42;102318.76;;;-3.98;77.14
43394;BME280;62479;62.642;17.954;2022-11-20T07:21:11;102319.70;;;-4.04;77.08
43394;BME280;62479;62.642;17.954;2022-11-20T07:23:40;102315.50;;;-4.00;77.10
43394;BME280;62479;62.642;17.954;2022-11-20T07:26:11;102310.53;;;-3.98;76.99
43394;BME280;62479;62.642;17.954;2022-11-20T07:28:40;102312.84;;;-3.90;76.86
43394;BME280;62479;62.642;17.954;2022-11-20T07:31:11;102307.48;;;-3.89;76.82
43394;BME280;62479;62.642;17.954;2022-11-20T07:33:40;102306.80;;;-3.95;77.06
43394;BME280;62479;62.642;17.954;2022-11-20T07:36:09;102302.92;;;-4.01;76.90
43394;BME280;62479;62.642;17.954;2022-11-20T07:38:40;102300.99;;;-3.95;77.27
43394;BME280;62479;62.642;17.954;2022-11-20T07:41:08;102298.16;;;-3.93;77.13
43394;BME280;62479;62.642;17.954;2022-11-20T07:43:37;102290.15;;;-3.97;77.27
43394;BME280;62479;62.642;17.954;2022-11-20T07:46:06;102282.73;;;-3.90;77.05
43394;BME280;62479;62.642;17.954;2022-11-20T07:48:35;102280.08;;;-3.90;77.35
43394;BME280;62479;62.642;17.954;2022-11-20T07:51:05;102285.03;;;-3.81;76.94
43394;BME280;62479;62.642;17.954;2022-11-20T07:53:35;102284.11;;;-3.68;77.01
43394;BME280;62479;62.642;17.954;2022-11-20T07:56:04;102282.04;;;-3.65;76.36
43394;BME280;62479;62.642;17.954;2022-11-20T07:58:33;102282.87;;;-3.75;76.90
43394;BME280;62479;62.642;17.954;2022-11-20T08:01:03;102283.73;;;-3.76;76.83
43394;BME280;62479;62.642;17.954;2022-11-20T08:03:35;102282.47;;;-3.69;76.54
43394;BME280;62479;62.642;17.954;2022-11-20T08:06:05;102281.99;;;-3.49;76.14
43394;BME280;62479;62.642;17.954;2022-11-20T08:08:33;102284.27;;;-3.59;76.33
43394;BME280;62479;62.642;17.954;2022-11-20T08:11:02;102283.06;;;-3.56;76.64
43394;BME280;62479;62.642;17.954;2022-11-20T08:13:32;102278.23;;;-3.71;76.19
43394;BME280;62479;62.642;17.954;2022-11-20T08:16:01;102275.15;;;-3.74;76.71
43394;BME280;62479;62.642;17.954;2022-11-20T08:18:31;102273.70;;;-3.74;76.81
43394;BME280;62479;62.642;17.954;2022-11-20T08:21:02;102263.59;;;-3.65;76.80
43394;BME280;62479;62.642;17.954;2022-11-20T08:23:31;102264.86;;;-3.68;76.40
43394;BME280;62479;62.642;17.954;2022-11-20T08:26:00;102260.46;;;-3.64;76.87
43394;BME280;62479;62.642;17.954;2022-11-20T08:28:29;102263.24;;;-3.50;76.64
43394;BME280;62479;62.642;17.954;2022-11-20T08:30:58;102264.33;;;-3.65;76.83
43394;BME280;62479;62.642;17.954;2022-11-20T08:33:30;102259.63;;;-3.66;76.75
43394;BME280;62479;62.642;17.954;2022-11-20T08:36:01;102261.31;;;-3.63;76.60
43394;BME280;62479;62.642;17.954;2022-11-20T08:38:31;102266.24;;;-3.68;76.66
43394;BME280;62479;62.642;17.954;2022-11-20T08:41:01;102261.41;;;-3.55;77.12
43394;BME280;62479;62.642;17.954;2022-11-20T08:43:31;102255.08;;;-3.51;76.89
43394;BME280;62479;62.642;17.954;2022-11-20T08:46:00;102254.31;;;-3.50;76.26
43394;BME280;62479;62.642;17.954;2022-11-20T08:48:29;102256.15;;;-3.51;76.33
43394;BME280;62479;62.642;17.954;2022-11-20T08:50:58;102250.06;;;-3.40;76.48
43394;BME280;62479;62.642;17.954;2022-11-20T08:53:27;102251.16;;;-3.51;76.41
43394;BME280;62479;62.642;17.954;2022-11-20T08:55:56;102248.38;;;-3.50;76.27
43394;BME280;62479;62.642;17.954;2022-11-20T08:58:26;102248.50;;;-3.47;76.27
43394;BME280;62479;62.642;17.954;2022-11-20T09:00:54;102245.88;;;-3.43;76.97
43394;BME280;62479;62.642;17.954;2022-11-20T09:03:23;102242.14;;;-3.49;76.25
43394;BME280;62479;62.642;17.954;2022-11-20T09:05:57;102242.21;;;-3.44;75.70
43394;BME280;62479;62.642;17.954;2022-11-20T09:08:27;102243.95;;;-3.44;75.93
43394;BME280;62479;62.642;17.954;2022-11-20T09:10:56;102250.40;;;-3.35;75.77
43394;BME280;62479;62.642;17.954;2022-11-20T09:13:26;102247.25;;;-3.34;76.52
43394;BME280;62479;62.642;17.954;2022-11-20T09:15:56;102246.70;;;-3.29;75.75
43394;BME280;62479;62.642;17.954;2022-11-20T09:18:25;102245.39;;;-3.30;76.17
43394;BME280;62479;62.642;17.954;2022-11-20T09:20:56;102248.79;;;-3.32;75.67
43394;BME280;62479;62.642;17.954;2022-11-20T09:23:26;102251.75;;;-3.26;75.60
43394;BME280;62479;62.642;17.954;2022-11-20T09:25:55;102247.44;;;-3.30;75.39
43394;BME280;62479;62.642;17.954;2022-11-20T09:28:24;102240.21;;;-3.33;75.31
43394;BME280;62479;62.642;17.954;2022-11-20T09:30:54;102236.09;;;-3.20;75.63
43394;BME280;62479;62.642;17.954;2022-11-20T09:33:22;102231.09;;;-3.14;75.62
43394;BME280;62479;62.642;17.954;2022-11-20T09:35:51;102223.23;;;-3.25;75.69
43394;BME280;62479;62.642;17.954;2022-11-20T09:38:20;102220.06;;;-3.19;75.52
43394;BME280;62479;62.642;17.954;2022-11-20T09:40:55;102218.54;;;-3.15;76.07
43394;BME280;62479;62.642;17.954;2022-11-20T09:43:35;102218.69;;;-3.02;75.76
43394;BME280;62479;62.642;17.954;2022-11-20T09:46:14;102213.17;;;-2.98;75.65
43394;BME280;62479;62.642;17.954;2022-11-20T09:48:57;102211.72;;;-3.03;75.38
43394;BME280;62479;62.642;17.954;2022-11-20T09:51:36;102207.23;;;-2.87;74.95
43394;BME280;62479;62.642;17.954;2022-11-20T09:54:16;102202.23;;;-2.87;75.24
43394;BME280;62479;62.642;17.954;2022-11-20T09:56:46;102198.40;;;-2.82;74.98
43394;BME280;62479;62.642;17.954;2022-11-20T09:59:26;102193.55;;;-2.77;74.27
43394;BME280;62479;62.642;17.954;2022-11-20T10:01:59;102190.49;;;-2.75;74.66
43394;BME280;62479;62.642;17.954;2022-11-20T10:04:31;102196.26;;;-2.75;74.57
43394;BME280;62479;62.642;17.954;2022-11-20T10:07:06;102194.37;;;-2.69;75.20
43394;BME280;62479;62.642;17.954;2022-11-20T10:09:40;102191.35;;;-2.73;74.88
43394;BME280;62479;62.642;17.954;2022-11-20T10:12:17;102188.09;;;-2.71;74.98
43394;BME280;62479;62.642;17.954;2022-11-20T10:14:58;102188.61;;;-2.67;75.26
43394;BME280;62479;62.642;17.954;2022-11-20T10:17:49;102185.70;;;-2.70;74.94
43394;BME280;62479;62.642;17.954;2022-11-20T10:20:30;102187.20;;;-2.57;74.64
43394;BME280;62479;62.642;17.954;2022-11-20T10:23:18;102182.50;;;-2.43;74.77
43394;BME280;62479;62.642;17.954;2022-11-20T10:25:54;102176.10;;;-2.48;74.44
43394;BME280;62479;62.642;17.954;2022-11-20T10:28:37;102178.66;;;-2.61;74.51
43394;BME280;62479;62.642;17.954;2022-11-20T10:31:12;102170.90;;;-2.49;74.39
43394;BME280;62479;62.642;17.954;2022-11-20T10:33:45;102168.83;;;-2.42;74.41
43394;BME280;62479;62.642;17.954;2022-11-20T10:36:20;102169.55;;;-2.36;74.41
43394;BME280;62479;62.642;17.954;2022-11-20T10:38:55;102172.80;;;-2.49;74.13
43394;BME280;62479;62.642;17.954;2022-11-20T10:41:28;102169.56;;;-2.50;74.19
43394;BME280;62479;62.642;17.954;2022-11-20T10:44:03;102171.88;;;-2.46;74.00
43394;BME280;62479;62.642;17.954;2022-11-20T10:46:38;102165.19;;;-2.39;74.07
43394;BME280;62479;62.642;17.954;2022-11-20T10:49:13;102168.85;;;-2.36;73.83
43394;BME280;62479;62.642;17.954;2022-11-20T10:51:52;102163.54;;;-2.31;73.96
43394;BME280;62479;62.642;17.954;2022-11-20T10:54:31;102162.13;;;-2.38;73.86
43394;BME280;62479;62.642;17.954;2022-11-20T10:57:10;102165.55;;;-2.22;73.56
43394;BME280;62479;62.642;17.954;2022-11-20T10:59:52;102160.10;;;-2.31;73.85
43394;BME280;62479;62.642;17.954;2022-11-20T11:03:22;102150.14;;;-2.43;73.44
43394;BME280;62479;62.642;17.954;2022-11-20T11:05:56;102149.16;;;-2.47;73.87
43394;BME280;62479;62.642;17.954;2022-11-20T11:08:36;102142.88;;;-2.39;74.50
43394;BME280;62479;62.642;17.954;2022-11-20T11:11:18;102142.90;;;-2.36;74.36
43394;BME280;62479;62.642;17.954;2022-11-20T11:13:47;102138.59;;;-2.34;73.50
43394;BME280;62479;62.642;17.954;2022-11-20T11:16:21;102126.88;;;-2.23;73.34
43394;BME280;62479;62.642;17.954;2022-11-20T11:18:51;102126.06;;;-2.31;73.25
43394;BME280;62479;62.642;17.954;2022-11-20T11:21:32;102122.09;;;-2.35;74.01
43394;BME280;62479;62.642;17.954;2022-11-20T11:24:03;102117.13;;;-2.25;73.64
43394;BME280;62479;62.642;17.954;2022-11-20T11:26:34;102107.85;;;-2.38;73.98
43394;BME280;62479;62.642;17.954;2022-11-20T11:29:04;102103.99;;;-2.26;74.23
43394;BME280;62479;62.642;17.954;2022-11-20T11:31:34;102108.36;;;-2.31;74.37
43394;BME280;62479;62.642;17.954;2022-11-20T11:34:05;102101.50;;;-2.13;74.20
43394;BME280;62479;62.642;17.954;2022-11-20T11:36:34;102107.10;;;-2.16;73.83
43394;BME280;62479;62.642;17.954;2022-11-20T11:39:10;102103.64;;;-2.14;73.80
43394;BME280;62479;62.642;17.954;2022-11-20T11:41:40;102105.18;;;-2.02;74.41
43394;BME280;62479;62.642;17.954;2022-11-20T11:44:16;102100.25;;;-2.01;74.58
43394;BME280;62479;62.642;17.954;2022-11-20T11:46:52;102098.75;;;-2.08;75.25
43394;BME280;62479;62.642;17.954;2022-11-20T11:49:21;102093.75;;;-2.05;75.27
43394;BME280;62479;62.642;17.954;2022-11-20T11:51:59;102093.83;;;-2.18;75.93
43394;BME280;62479;62.642;17.954;2022-11-20T11:54:32;102088.92;;;-1.92;75.83
43394;BME280;62479;62.642;17.954;2022-11-20T11:57:10;102088.73;;;-2.06;76.28
43394;BME280;62479;62.642;17.954;2022-11-20T11:59:51;102079.16;;;-2.06;76.23
43394;BME280;62479;62.642;17.954;2022-11-20T12:02:30;102076.20;;;-2.07;76.28
43394;BME280;62479;62.642;17.954;2022-11-20T12:05:08;102072.85;;;-2.09;76.11
43394;BME280;62479;62.642;17.954;2022-11-20T12:07:41;102072.45;;;-2.00;76.39
43394;BME280;62479;62.642;17.954;2022-11-20T12:10:17;102068.68;;;-2.07;76.74
43394;BME280;62479;62.642;17.954;2022-11-20T12:12:51;102068.25;;;-2.14;76.45
43394;BME280;62479;62.642;17.954;2022-11-20T12:15:28;102057.05;;;-2.05;76.03
43394;BME280;62479;62.642;17.954;2022-11-20T12:17:58;102059.48;;;-2.05;75.70
43394;BME280;62479;62.642;17.954;2022-11-20T12:20:29;102055.57;;;-2.03;75.82
43394;BME280;62479;62.642;17.954;2022-11-20T12:23:07;102053.95;;;-2.15;76.07
43394;BME280;62479;62.642;17.954;2022-11-20T12:25:38;102051.04;;;-2.01;76.01
43394;BME280;62479;62.642;17.954;2022-11-20T12:28:29;102047.74;;;-1.95;76.13
43394;BME280;62479;62.642;17.954;2022-11-20T12:31:18;102042.64;;;-2.06;76.64
43394;BME280;62479;62.642;17.954;2022-11-20T12:34:12;102044.66;;;-2.09;77.28
43394;BME280;62479;62.642;17.954;2022-11-20T12:36:51;102044.42;;;-2.18;77.91
43394;BME280;62479;62.642;17.954;2022-11-20T12:39:32;102041.98;;;-2.19;77.39
43394;BME280;62479;62.642;17.954;2022-11-20T12:42:11;102035.25;;;-2.12;77.51
43394;BME280;62479;62.642;17.954;2022-11-20T12:45:01;102032.12;;;-2.21;76.93
43394;BME280;62479;62.642;17.954;2022-11-20T12:47:50;102031.78;;;-2.18;76.63
43394;BME280;62479;62.642;17.954;2022-11-20T12:50:28;102034.56;;;-2.21;77.44
43394;BME280;62479;62.642;17.954;2022-11-20T12:53:04;102029.88;;;-2.25;77.51
43394;BME280;62479;62.642;17.954;2022-11-20T12:55:42;102032.26;;;-2.22;78.03
43394;BME280;62479;62.642;17.954;2022-11-20T12:58:20;102029.82;;;-2.21;77.58
43394;BME280;62479;62.642;17.954;2022-11-20T13:00:57;102028.38;;;-2.16;77.58
43394;BME280;62479;62.642;17.954;2022-11-20T13:03:37;102028.73;;;-2.24;77.40
43394;BME280;62479;62.642;17.954;2022-11-20T13:06:16;102026.84;;;-2.24;77.98